sensor_id;sensor_type;location;lat;lon;timestamp;temperature;humidity
25871;DHT22;13689;48.590;7.752;2023-04-06T00:00:48;7.70;50.20
25871;DHT22;13689;48.590;7.752;2023-04-06T00:03:14;7.70;50.30
25871;DHT22;13689;48.590;7.752;2023-04-06T00:05:40;7.60;50.20
25871;DHT22;13689;48.590;7.752;2023-04-06T00:08:05;7.70;50.40
25871;DHT22;13689;48.590;7.752;2023-04-06T00:10:31;7.60;50.50
25871;DHT22;13689;48.590;7.752;2023-04-06T00:12:58;7.60;50.60
25871;DHT22;13689;48.590;7.752;2023-04-06T00:15:25;7.60;50.70
25871;DHT22;13689;48.590;7.752;2023-04-06T00:17:50;7.60;50.70
25871;DHT22;13689;48.590;7.752;2023-04-06T00:20:16;7.60;50.80
25871;DHT22;13689;48.590;7.752;2023-04-06T00:22:43;7.50;50.80
25871;DHT22;13689;48.590;7.752;2023-04-06T00:25:09;7.50;50.90
25871;DHT22;13689;48.590;7.752;2023-04-06T00:27:35;7.50;51.00
25871;DHT22;13689;48.590;7.752;2023-04-06T00:30:02;7.50;51.00
25871;DHT22;13689;48.590;7.752;2023-04-06T00:32:28;7.50;51.10
25871;DHT22;13689;48.590;7.752;2023-04-06T00:34:54;7.50;51.20
25871;DHT22;13689;48.590;7.752;2023-04-06T00:37:20;7.50;51.30
25871;DHT22;13689;48.590;7.752;2023-04-06T00:39:45;7.40;51.50
25871;DHT22;13689;48.590;7.752;2023-04-06T00:42:12;7.40;51.80
25871;DHT22;13689;48.590;7.752;2023-04-06T00:44:41;7.50;52.00
25871;DHT22;13689;48.590;7.752;2023-04-06T00:47:07;7.50;52.00
25871;DHT22;13689;48.590;7.752;2023-04-06T00:49:33;7.50;52.00
25871;DHT22;13689;48.590;7.752;2023-04-06T00:51:59;7.50;52.30
25871;DHT22;13689;48.590;7.752;2023-04-06T00:54:25;7.40;52.50
25871;DHT22;13689;48.590;7.752;2023-04-06T00:56:51;7.40;52.70
25871;DHT22;13689;48.590;7.752;2023-04-06T00:59:17;7.40;52.90
25871;DHT22;13689;48.590;7.752;2023-04-06T01:01:42;7.40;53.10
25871;DHT22;13689;48.590;7.752;2023-04-06T01:04:08;7.30;53.00
25871;DHT22;13689;48.590;7.752;2023-04-06T01:06:34;7.30;53.10
25871;DHT22;13689;48.590;7.752;2023-04-06T01:09:00;7.30;53.10
25871;DHT22;13689;48.590;7.752;2023-04-06T01:11:25;7.20;53.00
25871;DHT22;13689;48.590;7.752;2023-04-06T01:13:52;7.20;53.00
25871;DHT22;13689;48.590;7.752;2023-04-06T01:16:17;7.20;53.00
25871;DHT22;13689;48.590;7.752;2023-04-06T01:18:43;7.20;53.00
25871;DHT22;13689;48.590;7.752;2023-04-06T01:21:09;7.20;53.00
25871;DHT22;13689;48.590;7.752;2023-04-06T01:23:44;7.20;53.00
25871;DHT22;13689;48.590;7.752;2023-04-06T01:26:11;7.20;53.00
25871;DHT22;13689;48.590;7.752;2023-04-06T01:28:37;7.10;53.00
25871;DHT22;13689;48.590;7.752;2023-04-06T01:31:04;7.10;53.10
25871;DHT22;13689;48.590;7.752;2023-04-06T01:33:30;7.10;53.10
25871;DHT22;13689;48.590;7.752;2023-04-06T01:35:56;7.00;53.20
25871;DHT22;13689;48.590;7.752;2023-04-06T01:38:21;7.00;53.40
25871;DHT22;13689;48.590;7.752;2023-04-06T01:40:47;7.00;53.50
25871;DHT22;13689;48.590;7.752;2023-04-06T01:43:12;7.00;53.50
25871;DHT22;13689;48.590;7.752;2023-04-06T01:45:38;6.90;53.60
25871;DHT22;13689;48.590;7.752;2023-04-06T01:48:04;6.90;53.70
25871;DHT22;13689;48.590;7.752;2023-04-06T01:50:30;6.90;53.80
25871;DHT22;13689;48.590;7.752;2023-04-06T01:52:55;6.90;53.90
25871;DHT22;13689;48.590;7.752;2023-04-06T01:55:21;6.90;54.10
25871;DHT22;13689;48.590;7.752;2023-04-06T01:57:46;6.90;54.30
25871;DHT22;13689;48.590;7.752;2023-04-06T02:00:12;6.90;54.60
25871;DHT22;13689;48.590;7.752;2023-04-06T02:02:38;6.80;54.90
25871;DHT22;13689;48.590;7.752;2023-04-06T02:05:04;6.80;55.00
25871;DHT22;13689;48.590;7.752;2023-04-06T02:07:30;6.80;55.30
25871;DHT22;13689;48.590;7.752;2023-04-06T02:09:56;6.80;55.50
25871;DHT22;13689;48.590;7.752;2023-04-06T02:12:21;6.80;55.70
25871;DHT22;13689;48.590;7.752;2023-04-06T02:14:47;6.80;55.80
25871;DHT22;13689;48.590;7.752;2023-04-06T02:17:13;6.80;56.00
25871;DHT22;13689;48.590;7.752;2023-04-06T02:19:38;6.70;56.20
25871;DHT22;13689;48.590;7.752;2023-04-06T02:22:04;6.70;56.90
25871;DHT22;13689;48.590;7.752;2023-04-06T02:24:29;6.70;56.40
25871;DHT22;13689;48.590;7.752;2023-04-06T02:26:55;6.70;56.50
25871;DHT22;13689;48.590;7.752;2023-04-06T02:29:21;6.60;56.40
25871;DHT22;13689;48.590;7.752;2023-04-06T02:31:46;6.60;56.50
25871;DHT22;13689;48.590;7.752;2023-04-06T02:34:12;6.60;56.70
25871;DHT22;13689;48.590;7.752;2023-04-06T02:36:43;6.60;56.70
25871;DHT22;13689;48.590;7.752;2023-04-06T02:39:10;6.60;56.70
25871;DHT22;13689;48.590;7.752;2023-04-06T02:41:35;6.50;56.70
25871;DHT22;13689;48.590;7.752;2023-04-06T02:44:01;6.50;56.60
25871;DHT22;13689;48.590;7.752;2023-04-06T02:46:27;6.50;56.80
25871;DHT22;13689;48.590;7.752;2023-04-06T02:48:52;6.40;56.80
25871;DHT22;13689;48.590;7.752;2023-04-06T02:51:18;6.40;56.90
25871;DHT22;13689;48.590;7.752;2023-04-06T02:53:44;6.40;57.10
25871;DHT22;13689;48.590;7.752;2023-04-06T02:56:10;6.40;57.00
25871;DHT22;13689;48.590;7.752;2023-04-06T02:58:36;6.40;57.00
25871;DHT22;13689;48.590;7.752;2023-04-06T03:01:02;6.40;57.00
25871;DHT22;13689;48.590;7.752;2023-04-06T03:03:28;6.40;56.90
25871;DHT22;13689;48.590;7.752;2023-04-06T03:05:55;6.40;56.90
25871;DHT22;13689;48.590;7.752;2023-04-06T03:08:24;6.40;56.90
25871;DHT22;13689;48.590;7.752;2023-04-06T03:10:50;6.40;56.90
25871;DHT22;13689;48.590;7.752;2023-04-06T03:13:16;6.40;56.90
25871;DHT22;13689;48.590;7.752;2023-04-06T03:15:41;6.40;57.00
25871;DHT22;13689;48.590;7.752;2023-04-06T03:18:07;6.30;57.10
25871;DHT22;13689;48.590;7.752;2023-04-06T03:20:33;6.30;57.40
25871;DHT22;13689;48.590;7.752;2023-04-06T03:22:58;6.30;57.70
25871;DHT22;13689;48.590;7.752;2023-04-06T03:25:24;6.20;57.80
25871;DHT22;13689;48.590;7.752;2023-04-06T03:27:50;6.20;57.90
25871;DHT22;13689;48.590;7.752;2023-04-06T03:30:15;6.20;58.00
25871;DHT22;13689;48.590;7.752;2023-04-06T03:32:44;6.20;58.10
25871;DHT22;13689;48.590;7.752;2023-04-06T03:35:10;6.20;58.30
25871;DHT22;13689;48.590;7.752;2023-04-06T03:37:36;6.20;58.40
25871;DHT22;13689;48.590;7.752;2023-04-06T03:40:02;6.10;58.50
25871;DHT22;13689;48.590;7.752;2023-04-06T03:42:28;6.10;58.70
25871;DHT22;13689;48.590;7.752;2023-04-06T03:44:54;6.00;58.70
25871;DHT22;13689;48.590;7.752;2023-04-06T03:47:19;6.10;58.90
25871;DHT22;13689;48.590;7.752;2023-04-06T03:49:46;6.10;59.00
25871;DHT22;13689;48.590;7.752;2023-04-06T03:52:11;6.10;59.00
25871;DHT22;13689;48.590;7.752;2023-04-06T03:54:37;6.10;59.10
25871;DHT22;13689;48.590;7.752;2023-04-06T03:57:04;6.00;59.10
25871;DHT22;13689;48.590;7.752;2023-04-06T03:59:29;6.00;59.20
25871;DHT22;13689;48.590;7.752;2023-04-06T04:01:55;6.00;59.80
25871;DHT22;13689;48.590;7.752;2023-04-06T04:04:21;6.00;59.30
25871;DHT22;13689;48.590;7.752;2023-04-06T04:06:46;6.00;59.40
25871;DHT22;13689;48.590;7.752;2023-04-06T04:09:12;5.90;59.40
25871;DHT22;13689;48.590;7.752;2023-04-06T04:11:38;5.90;59.40
25871;DHT22;13689;48.590;7.752;2023-04-06T04:14:03;5.90;59.50
25871;DHT22;13689;48.590;7.752;2023-04-06T04:16:29;5.90;59.50
25871;DHT22;13689;48.590;7.752;2023-04-06T04:18:55;5.80;60.10
25871;DHT22;13689;48.590;7.752;2023-04-06T04:21:20;5.80;59.60
25871;DHT22;13689;48.590;7.752;2023-04-06T04:23:46;5.80;59.70
25871;DHT22;13689;48.590;7.752;2023-04-06T04:26:12;5.70;59.90
25871;DHT22;13689;48.590;7.752;2023-04-06T04:28:38;5.70;60.20
25871;DHT22;13689;48.590;7.752;2023-04-06T04:31:05;5.60;60.40
25871;DHT22;13689;48.590;7.752;2023-04-06T04:33:31;5.60;60.70
25871;DHT22;13689;48.590;7.752;2023-04-06T04:35:56;5.60;60.80
25871;DHT22;13689;48.590;7.752;2023-04-06T04:38:22;5.60;60.90
25871;DHT22;13689;48.590;7.752;2023-04-06T04:40:47;5.60;60.90
25871;DHT22;13689;48.590;7.752;2023-04-06T04:43:13;5.50;60.90
25871;DHT22;13689;48.590;7.752;2023-04-06T04:45:39;5.50;61.00
25871;DHT22;13689;48.590;7.752;2023-04-06T04:48:04;5.60;61.00
25871;DHT22;13689;48.590;7.752;2023-04-06T04:50:31;5.50;60.90
25871;DHT22;13689;48.590;7.752;2023-04-06T04:52:57;5.60;60.90
25871;DHT22;13689;48.590;7.752;2023-04-06T04:55:22;5.50;60.90
25871;DHT22;13689;48.590;7.752;2023-04-06T04:57:48;5.50;61.00
25871;DHT22;13689;48.590;7.752;2023-04-06T05:00:14;5.50;61.30
25871;DHT22;13689;48.590;7.752;2023-04-06T05:02:39;5.50;61.20
25871;DHT22;13689;48.590;7.752;2023-04-06T05:05:06;5.50;61.20
25871;DHT22;13689;48.590;7.752;2023-04-06T05:07:32;5.40;61.20
25871;DHT22;13689;48.590;7.752;2023-04-06T05:09:59;5.50;61.20
25871;DHT22;13689;48.590;7.752;2023-04-06T05:12:24;5.50;61.10
25871;DHT22;13689;48.590;7.752;2023-04-06T05:14:53;5.50;61.30
25871;DHT22;13689;48.590;7.752;2023-04-06T05:17:20;5.40;61.50
25871;DHT22;13689;48.590;7.752;2023-04-06T05:19:46;5.40;61.60
25871;DHT22;13689;48.590;7.752;2023-04-06T05:22:12;5.40;61.60
25871;DHT22;13689;48.590;7.752;2023-04-06T05:24:39;5.40;61.60
25871;DHT22;13689;48.590;7.752;2023-04-06T05:27:05;5.40;61.70
25871;DHT22;13689;48.590;7.752;2023-04-06T05:29:31;5.40;61.50
25871;DHT22;13689;48.590;7.752;2023-04-06T05:31:57;5.50;61.60
25871;DHT22;13689;48.590;7.752;2023-04-06T05:34:22;5.50;61.60
25871;DHT22;13689;48.590;7.752;2023-04-06T05:36:48;5.50;61.50
25871;DHT22;13689;48.590;7.752;2023-04-06T05:39:14;5.60;61.50
25871;DHT22;13689;48.590;7.752;2023-04-06T05:41:39;5.60;61.40
25871;DHT22;13689;48.590;7.752;2023-04-06T05:44:05;5.60;61.40
25871;DHT22;13689;48.590;7.752;2023-04-06T05:46:30;5.60;61.40
25871;DHT22;13689;48.590;7.752;2023-04-06T05:48:56;5.70;61.40
25871;DHT22;13689;48.590;7.752;2023-04-06T05:51:22;5.70;61.50
25871;DHT22;13689;48.590;7.752;2023-04-06T05:53:47;5.70;61.50
25871;DHT22;13689;48.590;7.752;2023-04-06T05:56:13;5.70;61.40
25871;DHT22;13689;48.590;7.752;2023-04-06T05:58:39;5.70;61.30
25871;DHT22;13689;48.590;7.752;2023-04-06T06:01:04;5.70;61.50
25871;DHT22;13689;48.590;7.752;2023-04-06T06:03:30;5.70;61.40
25871;DHT22;13689;48.590;7.752;2023-04-06T06:06:03;5.90;61.50
25871;DHT22;13689;48.590;7.752;2023-04-06T06:08:29;5.90;61.40
25871;DHT22;13689;48.590;7.752;2023-04-06T06:10:56;5.90;61.40
25871;DHT22;13689;48.590;7.752;2023-04-06T06:13:22;5.90;61.50
25871;DHT22;13689;48.590;7.752;2023-04-06T06:15:48;5.90;61.40
25871;DHT22;13689;48.590;7.752;2023-04-06T06:18:14;6.00;61.50
25871;DHT22;13689;48.590;7.752;2023-04-06T06:20:40;6.00;61.30
25871;DHT22;13689;48.590;7.752;2023-04-06T06:23:05;6.10;61.20
25871;DHT22;13689;48.590;7.752;2023-04-06T06:25:31;6.10;61.10
25871;DHT22;13689;48.590;7.752;2023-04-06T06:27:57;6.20;61.00
25871;DHT22;13689;48.590;7.752;2023-04-06T06:30:23;6.30;60.80
25871;DHT22;13689;48.590;7.752;2023-04-06T06:32:50;6.40;60.50
25871;DHT22;13689;48.590;7.752;2023-04-06T06:35:16;6.40;60.30
25871;DHT22;13689;48.590;7.752;2023-04-06T06:37:41;6.50;60.00
25871;DHT22;13689;48.590;7.752;2023-04-06T06:40:09;6.60;59.90
25871;DHT22;13689;48.590;7.752;2023-04-06T06:42:34;6.80;59.70
25871;DHT22;13689;48.590;7.752;2023-04-06T06:45:00;7.10;59.50
25871;DHT22;13689;48.590;7.752;2023-04-06T06:47:26;7.60;59.10
25871;DHT22;13689;48.590;7.752;2023-04-06T06:49:52;8.20;58.50
25871;DHT22;13689;48.590;7.752;2023-04-06T06:52:17;8.70;57.90
25871;DHT22;13689;48.590;7.752;2023-04-06T06:54:44;9.10;57.60
25871;DHT22;13689;48.590;7.752;2023-04-06T06:57:10;9.50;56.70
25871;DHT22;13689;48.590;7.752;2023-04-06T06:59:35;9.90;56.10
25871;DHT22;13689;48.590;7.752;2023-04-06T07:02:01;10.20;55.20
25871;DHT22;13689;48.590;7.752;2023-04-06T07:04:26;10.50;54.80
25871;DHT22;13689;48.590;7.752;2023-04-06T07:06:52;10.80;54.00
25871;DHT22;13689;48.590;7.752;2023-04-06T07:09:18;11.00;54.00
25871;DHT22;13689;48.590;7.752;2023-04-06T07:11:44;11.30;53.20
25871;DHT22;13689;48.590;7.752;2023-04-06T07:14:09;11.60;52.90
25871;DHT22;13689;48.590;7.752;2023-04-06T07:16:37;12.00;53.00
25871;DHT22;13689;48.590;7.752;2023-04-06T07:19:02;12.40;51.60
25871;DHT22;13689;48.590;7.752;2023-04-06T07:21:28;12.80;50.80
25871;DHT22;13689;48.590;7.752;2023-04-06T07:23:54;13.10;50.00
25871;DHT22;13689;48.590;7.752;2023-04-06T07:26:19;13.40;48.90
25871;DHT22;13689;48.590;7.752;2023-04-06T07:28:45;13.40;47.40
25871;DHT22;13689;48.590;7.752;2023-04-06T07:31:11;13.60;47.10
25871;DHT22;13689;48.590;7.752;2023-04-06T07:33:36;13.90;46.30
25871;DHT22;13689;48.590;7.752;2023-04-06T07:36:03;14.30;45.90
25871;DHT22;13689;48.590;7.752;2023-04-06T07:38:29;14.80;45.40
25871;DHT22;13689;48.590;7.752;2023-04-06T07:40:54;15.30;44.50
25871;DHT22;13689;48.590;7.752;2023-04-06T07:43:20;15.80;43.10
25871;DHT22;13689;48.590;7.752;2023-04-06T07:45:45;16.40;42.00
25871;DHT22;13689;48.590;7.752;2023-04-06T07:48:11;17.00;40.90
25871;DHT22;13689;48.590;7.752;2023-04-06T07:50:38;17.40;40.20
25871;DHT22;13689;48.590;7.752;2023-04-06T07:53:05;17.60;39.00
25871;DHT22;13689;48.590;7.752;2023-04-06T07:55:31;18.10;38.20
25871;DHT22;13689;48.590;7.752;2023-04-06T07:57:56;18.40;37.60
25871;DHT22;13689;48.590;7.752;2023-04-06T08:00:22;18.40;36.60
25871;DHT22;13689;48.590;7.752;2023-04-06T08:02:48;18.20;36.50
25871;DHT22;13689;48.590;7.752;2023-04-06T08:05:13;18.00;36.90
25871;DHT22;13689;48.590;7.752;2023-04-06T08:07:39;17.80;36.70
25871;DHT22;13689;48.590;7.752;2023-04-06T08:10:05;17.80;36.70
25871;DHT22;13689;48.590;7.752;2023-04-06T08:12:32;17.70;36.70
25871;DHT22;13689;48.590;7.752;2023-04-06T08:14:58;17.60;36.80
25871;DHT22;13689;48.590;7.752;2023-04-06T08:17:23;17.30;36.90
25871;DHT22;13689;48.590;7.752;2023-04-06T08:19:49;17.20;37.10
25871;DHT22;13689;48.590;7.752;2023-04-06T08:22:14;17.60;36.90
25871;DHT22;13689;48.590;7.752;2023-04-06T08:24:40;17.50;36.80
25871;DHT22;13689;48.590;7.752;2023-04-06T08:27:06;16.90;37.10
25871;DHT22;13689;48.590;7.752;2023-04-06T08:29:31;16.50;37.60
25871;DHT22;13689;48.590;7.752;2023-04-06T08:31:57;16.20;37.90
25871;DHT22;13689;48.590;7.752;2023-04-06T08:34:23;16.10;38.10
25871;DHT22;13689;48.590;7.752;2023-04-06T08:36:49;16.30;38.00
25871;DHT22;13689;48.590;7.752;2023-04-06T08:39:15;16.30;37.90
25871;DHT22;13689;48.590;7.752;2023-04-06T08:41:44;15.90;38.10
25871;DHT22;13689;48.590;7.752;2023-04-06T08:44:11;15.60;38.50
25871;DHT22;13689;48.590;7.752;2023-04-06T08:46:37;15.40;38.60
25871;DHT22;13689;48.590;7.752;2023-04-06T08:49:03;15.30;38.70
25871;DHT22;13689;48.590;7.752;2023-04-06T08:51:32;15.30;38.80
25871;DHT22;13689;48.590;7.752;2023-04-06T08:53:58;15.40;38.70
25871;DHT22;13689;48.590;7.752;2023-04-06T08:56:27;15.50;38.60
25871;DHT22;13689;48.590;7.752;2023-04-06T08:58:54;15.50;38.50
25871;DHT22;13689;48.590;7.752;2023-04-06T09:01:26;15.60;38.40
25871;DHT22;13689;48.590;7.752;2023-04-06T09:03:56;16.10;37.90
25871;DHT22;13689;48.590;7.752;2023-04-06T09:06:25;16.70;37.50
25871;DHT22;13689;48.590;7.752;2023-04-06T09:08:52;17.30;36.80
25871;DHT22;13689;48.590;7.752;2023-04-06T09:11:17;17.60;35.80
25871;DHT22;13689;48.590;7.752;2023-04-06T09:13:47;17.80;35.20
25871;DHT22;13689;48.590;7.752;2023-04-06T09:16:13;17.80;34.80
25871;DHT22;13689;48.590;7.752;2023-04-06T09:18:39;17.80;34.80
25871;DHT22;13689;48.590;7.752;2023-04-06T09:21:06;18.10;34.80
25871;DHT22;13689;48.590;7.752;2023-04-06T09:23:32;18.30;34.40
25871;DHT22;13689;48.590;7.752;2023-04-06T09:26:12;18.50;33.90
25871;DHT22;13689;48.590;7.752;2023-04-06T09:28:45;18.80;33.60
25871;DHT22;13689;48.590;7.752;2023-04-06T09:31:13;19.00;33.30
25871;DHT22;13689;48.590;7.752;2023-04-06T09:33:41;19.20;33.00
25871;DHT22;13689;48.590;7.752;2023-04-06T09:36:07;19.40;32.40
25871;DHT22;13689;48.590;7.752;2023-04-06T09:41:33;19.00;31.60
25871;DHT22;13689;48.590;7.752;2023-04-06T09:46:34;18.80;31.10
25871;DHT22;13689;48.590;7.752;2023-04-06T09:49:02;19.00;31.70
25871;DHT22;13689;48.590;7.752;2023-04-06T09:51:30;19.20;30.70
25871;DHT22;13689;48.590;7.752;2023-04-06T09:53:57;19.30;30.40
25871;DHT22;13689;48.590;7.752;2023-04-06T09:56:30;19.40;30.40
25871;DHT22;13689;48.590;7.752;2023-04-06T09:59:02;19.20;30.00
25871;DHT22;13689;48.590;7.752;2023-04-06T10:01:32;18.90;30.00
25871;DHT22;13689;48.590;7.752;2023-04-06T10:06:39;18.70;30.20
25871;DHT22;13689;48.590;7.752;2023-04-06T10:09:07;18.70;30.20
25871;DHT22;13689;48.590;7.752;2023-04-06T10:11:35;18.60;30.10
25871;DHT22;13689;48.590;7.752;2023-04-06T10:14:00;18.50;30.10
25871;DHT22;13689;48.590;7.752;2023-04-06T10:16:26;18.50;30.20
25871;DHT22;13689;48.590;7.752;2023-04-06T10:18:56;18.50;30.10
25871;DHT22;13689;48.590;7.752;2023-04-06T10:21:25;18.70;30.10
25871;DHT22;13689;48.590;7.752;2023-04-06T10:24:02;18.80;30.00
25871;DHT22;13689;48.590;7.752;2023-04-06T10:26:32;18.70;30.00
25871;DHT22;13689;48.590;7.752;2023-04-06T10:29:03;18.60;30.00
25871;DHT22;13689;48.590;7.752;2023-04-06T10:31:29;18.60;30.10
25871;DHT22;13689;48.590;7.752;2023-04-06T10:33:56;18.70;30.10
25871;DHT22;13689;48.590;7.752;2023-04-06T10:36:27;18.90;30.00
25871;DHT22;13689;48.590;7.752;2023-04-06T10:39:01;19.10;29.50
25871;DHT22;13689;48.590;7.752;2023-04-06T10:41:45;19.30;29.30
25871;DHT22;13689;48.590;7.752;2023-04-06T10:44:23;19.70;28.90
25871;DHT22;13689;48.590;7.752;2023-04-06T10:46:54;20.10;28.60
25871;DHT22;13689;48.590;7.752;2023-04-06T10:49:20;19.40;27.80
25871;DHT22;13689;48.590;7.752;2023-04-06T10:51:51;18.60;28.70
25871;DHT22;13689;48.590;7.752;2023-04-06T10:54:19;18.10;29.00
25871;DHT22;13689;48.590;7.752;2023-04-06T10:56:46;17.70;29.00
25871;DHT22;13689;48.590;7.752;2023-04-06T10:59:11;17.40;29.30
25871;DHT22;13689;48.590;7.752;2023-04-06T11:01:37;17.30;29.30
25871;DHT22;13689;48.590;7.752;2023-04-06T11:04:03;17.20;29.30
25871;DHT22;13689;48.590;7.752;2023-04-06T11:06:30;17.10;29.30
25871;DHT22;13689;48.590;7.752;2023-04-06T11:08:57;17.10;29.30
25871;DHT22;13689;48.590;7.752;2023-04-06T11:11:25;17.00;29.40
25871;DHT22;13689;48.590;7.752;2023-04-06T11:13:56;16.90;29.50
25871;DHT22;13689;48.590;7.752;2023-04-06T11:16:27;16.80;29.60
25871;DHT22;13689;48.590;7.752;2023-04-06T11:18:57;16.70;29.70
25871;DHT22;13689;48.590;7.752;2023-04-06T11:29:07;16.60;29.90
25871;DHT22;13689;48.590;7.752;2023-04-06T11:31:40;16.60;30.00
25871;DHT22;13689;48.590;7.752;2023-04-06T11:34:15;16.60;30.10
25871;DHT22;13689;48.590;7.752;2023-04-06T11:36:42;16.50;30.10
25871;DHT22;13689;48.590;7.752;2023-04-06T11:39:08;16.40;30.00
25871;DHT22;13689;48.590;7.752;2023-04-06T11:41:34;16.40;30.20
25871;DHT22;13689;48.590;7.752;2023-04-06T11:44:02;16.30;30.20
25871;DHT22;13689;48.590;7.752;2023-04-06T11:46:29;16.10;30.40
25871;DHT22;13689;48.590;7.752;2023-04-06T11:49:02;16.10;30.70
25871;DHT22;13689;48.590;7.752;2023-04-06T11:51:28;15.90;31.00
25871;DHT22;13689;48.590;7.752;2023-04-06T11:53:54;15.80;31.20
25871;DHT22;13689;48.590;7.752;2023-04-06T11:56:29;15.80;31.40
25871;DHT22;13689;48.590;7.752;2023-04-06T11:58:57;15.90;31.50
25871;DHT22;13689;48.590;7.752;2023-04-06T12:01:24;16.00;31.50
25871;DHT22;13689;48.590;7.752;2023-04-06T12:03:51;16.10;31.70
25871;DHT22;13689;48.590;7.752;2023-04-06T12:06:17;16.10;31.80
25871;DHT22;13689;48.590;7.752;2023-04-06T12:08:43;16.10;31.70
25871;DHT22;13689;48.590;7.752;2023-04-06T12:11:10;16.20;31.70
25871;DHT22;13689;48.590;7.752;2023-04-06T12:13:36;16.20;31.70
25871;DHT22;13689;48.590;7.752;2023-04-06T12:16:02;16.30;31.70
25871;DHT22;13689;48.590;7.752;2023-04-06T12:18:27;16.40;31.70
25871;DHT22;13689;48.590;7.752;2023-04-06T12:20:53;16.50;31.60
25871;DHT22;13689;48.590;7.752;2023-04-06T12:23:19;16.50;31.60
25871;DHT22;13689;48.590;7.752;2023-04-06T12:25:45;16.50;31.60
25871;DHT22;13689;48.590;7.752;2023-04-06T12:28:11;16.60;31.60
25871;DHT22;13689;48.590;7.752;2023-04-06T12:30:37;16.60;31.50
25871;DHT22;13689;48.590;7.752;2023-04-06T12:33:03;16.60;31.50
25871;DHT22;13689;48.590;7.752;2023-04-06T12:35:28;16.70;31.50
25871;DHT22;13689;48.590;7.752;2023-04-06T12:37:54;16.60;31.50
25871;DHT22;13689;48.590;7.752;2023-04-06T12:40:20;16.60;31.60
25871;DHT22;13689;48.590;7.752;2023-04-06T12:42:46;16.60;31.70
25871;DHT22;13689;48.590;7.752;2023-04-06T12:45:12;16.70;31.70
25871;DHT22;13689;48.590;7.752;2023-04-06T12:47:38;16.70;31.60
25871;DHT22;13689;48.590;7.752;2023-04-06T12:50:07;16.60;31.70
25871;DHT22;13689;48.590;7.752;2023-04-06T12:52:33;16.60;31.60
25871;DHT22;13689;48.590;7.752;2023-04-06T12:55:01;16.60;31.60
25871;DHT22;13689;48.590;7.752;2023-04-06T12:57:27;16.60;31.70
25871;DHT22;13689;48.590;7.752;2023-04-06T12:59:52;16.60;31.70
25871;DHT22;13689;48.590;7.752;2023-04-06T13:02:18;16.60;31.60
25871;DHT22;13689;48.590;7.752;2023-04-06T13:04:45;16.70;31.40
25871;DHT22;13689;48.590;7.752;2023-04-06T13:07:11;16.70;31.20
25871;DHT22;13689;48.590;7.752;2023-04-06T13:09:37;16.90;31.10
25871;DHT22;13689;48.590;7.752;2023-04-06T13:12:02;16.90;31.00
25871;DHT22;13689;48.590;7.752;2023-04-06T13:14:28;16.90;31.00
25871;DHT22;13689;48.590;7.752;2023-04-06T13:16:54;17.00;31.00
25871;DHT22;13689;48.590;7.752;2023-04-06T13:19:20;17.00;31.00
25871;DHT22;13689;48.590;7.752;2023-04-06T13:21:45;17.00;31.00
25871;DHT22;13689;48.590;7.752;2023-04-06T13:24:11;16.90;31.00
25871;DHT22;13689;48.590;7.752;2023-04-06T13:26:36;16.90;31.00
25871;DHT22;13689;48.590;7.752;2023-04-06T13:29:02;17.00;31.00
25871;DHT22;13689;48.590;7.752;2023-04-06T13:31:28;17.00;31.00
25871;DHT22;13689;48.590;7.752;2023-04-06T13:33:55;17.00;30.90
25871;DHT22;13689;48.590;7.752;2023-04-06T13:36:20;16.90;30.90
25871;DHT22;13689;48.590;7.752;2023-04-06T13:38:46;16.90;30.90
25871;DHT22;13689;48.590;7.752;2023-04-06T13:41:22;16.90;30.90
25871;DHT22;13689;48.590;7.752;2023-04-06T13:43:48;17.00;30.90
25871;DHT22;13689;48.590;7.752;2023-04-06T13:46:13;17.00;30.80
25871;DHT22;13689;48.590;7.752;2023-04-06T13:48:39;17.10;30.70
25871;DHT22;13689;48.590;7.752;2023-04-06T13:51:12;17.10;30.60
25871;DHT22;13689;48.590;7.752;2023-04-06T13:53:38;17.00;30.50
25871;DHT22;13689;48.590;7.752;2023-04-06T13:56:04;17.00;30.50
25871;DHT22;13689;48.590;7.752;2023-04-06T13:58:30;17.00;30.50
25871;DHT22;13689;48.590;7.752;2023-04-06T14:01:05;16.90;30.50
25871;DHT22;13689;48.590;7.752;2023-04-06T14:03:31;16.90;30.60
25871;DHT22;13689;48.590;7.752;2023-04-06T14:05:57;16.80;30.50
25871;DHT22;13689;48.590;7.752;2023-04-06T14:08:22;16.80;30.60
25871;DHT22;13689;48.590;7.752;2023-04-06T14:10:48;16.90;30.60
25871;DHT22;13689;48.590;7.752;2023-04-06T14:13:14;16.70;30.60
25871;DHT22;13689;48.590;7.752;2023-04-06T14:15:40;16.70;30.90
25871;DHT22;13689;48.590;7.752;2023-04-06T14:18:07;16.60;31.10
25871;DHT22;13689;48.590;7.752;2023-04-06T14:20:33;16.60;31.20
25871;DHT22;13689;48.590;7.752;2023-04-06T14:23:03;16.60;31.30
25871;DHT22;13689;48.590;7.752;2023-04-06T14:25:29;16.60;31.40
25871;DHT22;13689;48.590;7.752;2023-04-06T14:27:57;16.60;31.40
25871;DHT22;13689;48.590;7.752;2023-04-06T14:30:22;16.50;32.10
25871;DHT22;13689;48.590;7.752;2023-04-06T14:32:48;16.50;31.60
25871;DHT22;13689;48.590;7.752;2023-04-06T14:35:14;16.50;31.70
25871;DHT22;13689;48.590;7.752;2023-04-06T14:37:39;16.40;31.80
25871;DHT22;13689;48.590;7.752;2023-04-06T14:40:05;16.40;31.90
25871;DHT22;13689;48.590;7.752;2023-04-06T14:42:31;16.30;32.10
25871;DHT22;13689;48.590;7.752;2023-04-06T14:44:57;16.30;32.30
25871;DHT22;13689;48.590;7.752;2023-04-06T14:47:23;16.40;32.30
25871;DHT22;13689;48.590;7.752;2023-04-06T14:49:51;16.30;32.30
25871;DHT22;13689;48.590;7.752;2023-04-06T14:52:17;16.30;32.50
25871;DHT22;13689;48.590;7.752;2023-04-06T14:54:43;16.30;32.50
25871;DHT22;13689;48.590;7.752;2023-04-06T14:57:08;16.20;32.80
25871;DHT22;13689;48.590;7.752;2023-04-06T14:59:34;16.20;33.10
25871;DHT22;13689;48.590;7.752;2023-04-06T15:02:01;16.10;33.20
25871;DHT22;13689;48.590;7.752;2023-04-06T15:04:28;15.90;33.30
25871;DHT22;13689;48.590;7.752;2023-04-06T15:06:54;15.80;33.60
25871;DHT22;13689;48.590;7.752;2023-04-06T15:09:19;15.60;33.80
25871;DHT22;13689;48.590;7.752;2023-04-06T15:11:45;15.60;34.00
25871;DHT22;13689;48.590;7.752;2023-04-06T15:14:11;15.50;34.30
25871;DHT22;13689;48.590;7.752;2023-04-06T15:16:36;15.50;34.80
25871;DHT22;13689;48.590;7.752;2023-04-06T15:19:02;15.40;35.40
25871;DHT22;13689;48.590;7.752;2023-04-06T15:21:27;15.40;35.80
25871;DHT22;13689;48.590;7.752;2023-04-06T15:23:53;15.40;35.90
25871;DHT22;13689;48.590;7.752;2023-04-06T15:26:20;15.40;36.10
25871;DHT22;13689;48.590;7.752;2023-04-06T15:28:46;15.30;36.10
25871;DHT22;13689;48.590;7.752;2023-04-06T15:31:15;15.20;36.50
25871;DHT22;13689;48.590;7.752;2023-04-06T15:33:41;15.20;36.90
25871;DHT22;13689;48.590;7.752;2023-04-06T15:36:17;15.20;37.20
25871;DHT22;13689;48.590;7.752;2023-04-06T15:38:46;15.20;37.50
25871;DHT22;13689;48.590;7.752;2023-04-06T15:41:13;15.20;37.50
25871;DHT22;13689;48.590;7.752;2023-04-06T15:43:39;15.20;37.50
25871;DHT22;13689;48.590;7.752;2023-04-06T15:46:05;15.20;37.50
25871;DHT22;13689;48.590;7.752;2023-04-06T15:48:31;15.10;37.70